createdAt,value
2023-09-27T00:00:45.282Z,0.00
2023-09-27T00:01:45.302Z,0.00
2023-09-27T00:02:45.401Z,0.00
2023-09-27T00:03:45.246Z,0.00
2023-09-27T00:04:45.289Z,0.00
2023-09-27T00:05:45.308Z,0.00
2023-09-27T00:06:45.186Z,0.00
2023-09-27T00:07:45.270Z,0.00
2023-09-27T00:08:45.183Z,0.00
2023-09-27T00:09:45.190Z,0.00
2023-09-27T00:10:45.144Z,0.00
2023-09-27T00:11:45.121Z,0.00
2023-09-27T00:12:45.113Z,0.00
2023-09-27T00:13:45.107Z,0.00
2023-09-27T00:14:45.099Z,0.00
2023-09-27T00:15:45.107Z,0.00
2023-09-27T00:16:45.135Z,0.00
2023-09-27T00:17:45.151Z,0.00
2023-09-27T00:18:45.096Z,0.00
2023-09-27T00:19:45.022Z,0.00
2023-09-27T00:20:45.017Z,0.00
2023-09-27T00:21:45.025Z,0.00
2023-09-27T00:22:44.991Z,0.00
2023-09-27T00:23:44.978Z,0.00
2023-09-27T00:24:44.959Z,0.00
2023-09-27T00:25:44.992Z,0.00
2023-09-27T00:26:44.940Z,0.00
2023-09-27T00:27:44.942Z,0.00
2023-09-27T00:28:44.921Z,0.00
2023-09-27T00:29:44.908Z,0.00
2023-09-27T00:30:44.908Z,0.00
2023-09-27T00:31:45.004Z,0.00
2023-09-27T00:32:44.938Z,0.00
2023-09-27T00:33:44.845Z,0.00
2023-09-27T00:34:44.843Z,0.00
2023-09-27T00:35:44.831Z,0.00
2023-09-27T00:36:44.806Z,0.00
2023-09-27T00:37:44.812Z,0.00
2023-09-27T00:38:44.793Z,0.00
2023-09-27T00:39:44.770Z,0.00
2023-09-27T00:40:44.768Z,0.00
2023-09-27T00:41:44.786Z,0.00
2023-09-27T00:42:44.742Z,0.00
2023-09-27T00:43:44.738Z,0.00
2023-09-27T00:44:44.706Z,0.00
2023-09-27T00:45:44.695Z,0.00
2023-09-27T00:46:44.699Z,0.00
2023-09-27T00:47:44.694Z,0.00
2023-09-27T00:48:44.674Z,0.00
2023-09-27T00:49:44.657Z,0.00
2023-09-27T00:50:44.643Z,0.00
2023-09-27T00:51:44.646Z,0.00
2023-09-27T00:52:44.706Z,0.00
2023-09-27T00:53:44.649Z,0.00
2023-09-27T00:54:44.604Z,0.00
2023-09-27T00:55:44.580Z,0.00
2023-09-27T00:56:44.569Z,0.00
2023-09-27T00:57:44.550Z,0.00
2023-09-27T00:58:44.552Z,0.00
2023-09-27T00:59:44.562Z,0.00
2023-09-27T01:00:44.508Z,0.00
2023-09-27T01:01:44.549Z,0.00
2023-09-27T01:02:44.566Z,0.00
2023-09-27T01:03:44.493Z,0.00
2023-09-27T01:04:44.460Z,0.00
2023-09-27T01:05:44.533Z,0.00
2023-09-27T01:06:44.487Z,0.00
2023-09-27T01:07:44.465Z,0.00
2023-09-27T01:08:44.411Z,0.00
2023-09-27T01:09:44.414Z,0.00
2023-09-27T01:10:44.394Z,0.00
2023-09-27T01:11:44.380Z,0.00
2023-09-27T01:12:44.440Z,0.00
2023-09-27T01:13:44.375Z,0.00
2023-09-27T01:14:44.344Z,0.00
2023-09-27T01:15:44.318Z,0.00
2023-09-27T01:16:44.308Z,0.00
2023-09-27T01:17:44.384Z,0.00
2023-09-27T01:18:44.291Z,0.00
2023-09-27T01:19:44.285Z,0.00
2023-09-27T01:20:44.277Z,0.00
2023-09-27T01:21:44.239Z,0.00
2023-09-27T01:22:44.232Z,0.00
2023-09-27T01:23:44.230Z,0.00
2023-09-27T01:24:44.212Z,0.00
2023-09-27T01:25:44.222Z,0.00
2023-09-27T01:26:44.195Z,0.00
2023-09-27T01:27:44.170Z,0.00
2023-09-27T01:28:44.173Z,0.00
2023-09-27T01:29:44.152Z,0.00
2023-09-27T01:30:44.146Z,0.00
2023-09-27T01:31:44.148Z,0.00
2023-09-27T01:32:44.191Z,0.00
2023-09-27T01:33:44.121Z,0.00
2023-09-27T01:34:44.090Z,0.00
2023-09-27T01:35:44.087Z,0.00
2023-09-27T01:36:44.086Z,0.00
2023-09-27T01:37:44.127Z,0.00
2023-09-27T01:38:44.026Z,0.00
2023-09-27T01:39:44.023Z,0.00
2023-09-27T01:40:44.010Z,0.00
2023-09-27T01:41:44.002Z,0.00
2023-09-27T01:42:43.989Z,0.00
2023-09-27T01:43:43.985Z,0.00
2023-09-27T01:44:43.966Z,0.00
2023-09-27T01:45:44.142Z,0.00
2023-09-27T01:46:43.928Z,0.00
2023-09-27T01:47:44.011Z,0.00
2023-09-27T01:48:43.917Z,0.00
2023-09-27T01:49:43.918Z,0.00
2023-09-27T01:50:43.905Z,0.00
2023-09-27T01:51:43.952Z,0.00
2023-09-27T01:52:43.856Z,0.00
2023-09-27T01:53:43.849Z,0.00
2023-09-27T01:54:43.829Z,0.00
2023-09-27T01:55:43.822Z,0.00
2023-09-27T01:56:43.827Z,0.00
2023-09-27T01:57:43.824Z,0.00
2023-09-27T01:58:43.793Z,0.00
2023-09-27T01:59:43.760Z,0.00
2023-09-27T02:00:43.763Z,0.00
2023-09-27T02:01:43.785Z,0.00
2023-09-27T02:02:43.969Z,0.00
2023-09-27T02:03:43.846Z,0.00
2023-09-27T02:04:43.730Z,0.00
2023-09-27T02:05:43.753Z,0.00
2023-09-27T02:06:43.683Z,0.00
2023-09-27T02:07:43.673Z,0.00
2023-09-27T02:08:43.696Z,0.00
2023-09-27T02:09:43.660Z,0.00
2023-09-27T02:10:43.655Z,0.00
2023-09-27T02:11:43.629Z,0.00
2023-09-27T02:12:43.637Z,0.00
2023-09-27T02:13:43.624Z,0.00
2023-09-27T02:14:43.616Z,0.00
2023-09-27T02:15:43.589Z,0.00
2023-09-27T02:16:43.607Z,0.00
2023-09-27T02:17:43.570Z,0.00
2023-09-27T02:18:43.566Z,0.00
2023-09-27T02:19:43.539Z,0.00
2023-09-27T02:20:43.508Z,0.00
2023-09-27T02:21:43.488Z,0.00
2023-09-27T02:22:43.540Z,0.00
2023-09-27T02:23:43.465Z,0.00
2023-09-27T02:24:43.456Z,0.00
2023-09-27T02:25:43.438Z,0.00
2023-09-27T02:26:43.432Z,0.00
2023-09-27T02:27:43.435Z,0.00
2023-09-27T02:28:43.417Z,0.00
2023-09-27T02:29:43.403Z,0.00
2023-09-27T02:30:43.381Z,0.00
2023-09-27T02:31:43.386Z,0.00
2023-09-27T02:32:43.531Z,0.00
2023-09-27T02:33:43.365Z,0.00
2023-09-27T02:34:43.358Z,0.00
2023-09-27T02:35:43.317Z,0.00
2023-09-27T02:36:43.323Z,0.00
2023-09-27T02:37:43.291Z,0.00
2023-09-27T02:38:43.321Z,0.00
2023-09-27T02:39:43.281Z,0.00
2023-09-27T02:40:43.548Z,0.00
2023-09-27T02:41:43.243Z,0.00
2023-09-27T02:42:43.237Z,0.00
2023-09-27T02:43:43.223Z,0.00
2023-09-27T02:44:43.238Z,0.00
2023-09-27T02:45:43.273Z,0.00
2023-09-27T02:46:43.204Z,0.00
2023-09-27T02:47:43.244Z,0.00
2023-09-27T02:48:43.224Z,0.00
2023-09-27T02:49:43.145Z,0.00
2023-09-27T02:50:43.122Z,0.00
2023-09-27T02:51:43.109Z,0.00
2023-09-27T02:52:43.110Z,0.00
2023-09-27T02:53:43.093Z,0.00
2023-09-27T02:54:43.067Z,0.00
2023-09-27T02:55:43.065Z,0.00
2023-09-27T02:56:43.065Z,0.00
2023-09-27T02:57:43.085Z,0.00
2023-09-27T02:58:43.026Z,0.00
2023-09-27T02:59:43.015Z,0.00
2023-09-27T03:00:43.002Z,0.00
2023-09-27T03:01:43.079Z,0.00
2023-09-27T03:02:43.247Z,0.00
2023-09-27T03:03:43.056Z,0.00
2023-09-27T03:04:42.951Z,0.00
2023-09-27T03:05:42.940Z,0.00
2023-09-27T03:06:42.977Z,0.00
2023-09-27T03:07:42.911Z,0.00
2023-09-27T03:08:42.897Z,0.00
2023-09-27T03:09:42.889Z,0.00
2023-09-27T03:10:42.875Z,0.00
2023-09-27T03:11:42.861Z,0.00
2023-09-27T03:12:42.860Z,0.00
2023-09-27T03:13:42.838Z,0.00
2023-09-27T03:14:42.838Z,0.00
2023-09-27T03:15:42.936Z,0.00
2023-09-27T03:16:42.885Z,0.00
2023-09-27T03:17:42.849Z,0.00
2023-09-27T03:18:42.846Z,0.00
2023-09-27T03:19:42.785Z,0.00
2023-09-27T03:20:42.765Z,0.00
2023-09-27T03:21:42.781Z,0.00
2023-09-27T03:22:43.483Z,0.00
2023-09-27T03:23:42.727Z,0.00
2023-09-27T03:24:42.699Z,0.00
2023-09-27T03:25:42.682Z,0.00
2023-09-27T03:26:42.672Z,0.00
2023-09-27T03:27:42.663Z,0.00
2023-09-27T03:28:42.653Z,0.00
2023-09-27T03:29:42.635Z,0.00
2023-09-27T03:32:04.471Z,0.00
2023-09-27T03:33:09.673Z,0.00
2023-09-27T03:34:03.072Z,0.00
2023-09-27T03:35:03.127Z,0.00
2023-09-27T03:36:03.055Z,0.00
2023-09-27T03:37:03.013Z,0.00
2023-09-27T03:38:03.318Z,0.00
2023-09-27T03:39:04.240Z,0.00
2023-09-27T03:40:03.002Z,0.00
2023-09-27T03:41:03.006Z,0.00
2023-09-27T03:42:02.956Z,0.00
2023-09-27T03:43:02.972Z,0.00
2023-09-27T03:44:03.073Z,0.00
2023-09-27T03:45:02.936Z,0.00
2023-09-27T03:46:02.899Z,0.00
2023-09-27T03:47:03.028Z,0.00
2023-09-27T03:48:02.918Z,0.00
2023-09-27T03:49:02.898Z,0.00
2023-09-27T03:50:02.880Z,0.00
2023-09-27T03:51:02.880Z,0.00
2023-09-27T03:52:02.869Z,0.00
2023-09-27T03:53:02.842Z,0.00
2023-09-27T03:54:02.824Z,0.00
2023-09-27T03:55:02.819Z,0.00
2023-09-27T03:56:02.822Z,0.00
2023-09-27T03:57:02.762Z,0.00
2023-09-27T03:58:02.773Z,0.00
2023-09-27T03:59:02.798Z,0.00
2023-09-27T04:00:58.669Z,0.00
2023-09-27T04:02:05.881Z,0.00
2023-09-27T04:03:06.663Z,0.00
2023-09-27T04:03:58.691Z,0.00
2023-09-27T04:04:58.656Z,0.00
2023-09-27T04:05:58.596Z,0.00
2023-09-27T04:06:58.580Z,0.00
2023-09-27T04:07:59.854Z,0.00
2023-09-27T04:08:58.520Z,0.00
2023-09-27T04:09:58.505Z,0.00
2023-09-27T04:10:58.523Z,0.00
2023-09-27T04:11:58.499Z,0.00
2023-09-27T04:12:58.529Z,0.00
2023-09-27T04:13:58.525Z,0.00
2023-09-27T04:14:58.488Z,0.00
2023-09-27T04:15:58.493Z,0.00
2023-09-27T04:16:58.432Z,0.00
2023-09-27T04:17:59.242Z,0.00
2023-09-27T04:18:58.434Z,0.00
2023-09-27T04:19:58.389Z,0.00
2023-09-27T04:20:58.388Z,0.00
2023-09-27T04:21:58.522Z,0.00
2023-09-27T04:22:58.413Z,0.00
2023-09-27T04:24:05.448Z,0.00
2023-09-27T04:24:58.338Z,0.00
2023-09-27T04:25:58.350Z,0.00
2023-09-27T04:26:58.313Z,0.00
2023-09-27T04:27:58.275Z,0.00
2023-09-27T04:28:58.335Z,0.00
2023-09-27T04:29:58.250Z,0.00
2023-09-27T04:30:58.277Z,0.00
2023-09-27T04:31:58.326Z,0.00
2023-09-27T04:32:58.257Z,0.00
2023-09-27T04:33:58.246Z,0.00
2023-09-27T04:34:58.218Z,0.00
2023-09-27T04:35:58.162Z,0.00
2023-09-27T04:36:58.152Z,0.00
2023-09-27T04:37:58.229Z,0.00
2023-09-27T04:38:58.181Z,0.00
2023-09-27T04:39:58.112Z,0.00
2023-09-27T04:40:58.117Z,0.00
2023-09-27T04:41:58.088Z,0.00
2023-09-27T04:42:58.077Z,0.00
2023-09-27T04:43:58.145Z,0.00
2023-09-27T04:44:58.111Z,0.00
2023-09-27T04:45:58.102Z,0.00
2023-09-27T04:46:58.135Z,0.00
2023-09-27T04:47:58.038Z,0.00
2023-09-27T04:48:58.027Z,0.00
2023-09-27T04:49:58.030Z,0.00
2023-09-27T04:50:57.999Z,0.00
2023-09-27T04:51:57.982Z,0.00
2023-09-27T04:52:57.985Z,0.00
2023-09-27T04:53:57.949Z,0.00
2023-09-27T04:54:57.932Z,0.00
2023-09-27T04:55:58.006Z,0.00
2023-09-27T04:56:57.880Z,0.00
2023-09-27T04:57:57.873Z,0.00
2023-09-27T04:58:57.897Z,0.00
2023-09-27T04:59:57.868Z,0.00
2023-09-27T05:00:57.885Z,0.00
2023-09-27T05:01:57.893Z,0.00
2023-09-27T05:02:57.826Z,0.00
2023-09-27T05:03:57.842Z,0.00
2023-09-27T05:04:57.818Z,0.00
2023-09-27T05:05:57.777Z,0.00
2023-09-27T05:06:57.794Z,0.00
2023-09-27T05:08:01.816Z,4.00
2023-09-27T05:08:57.733Z,0.00
2023-09-27T05:09:57.717Z,0.00
2023-09-27T05:10:58.439Z,4.00
2023-09-27T05:13:25.344Z,4.00
2023-09-27T05:14:25.362Z,4.00
2023-09-27T05:15:25.311Z,4.00
2023-09-27T05:16:25.283Z,4.00
2023-09-27T05:17:25.350Z,4.00
2023-09-27T05:18:25.290Z,8.00
2023-09-27T05:19:25.332Z,8.00
2023-09-27T05:20:25.251Z,8.00
2023-09-27T05:21:25.201Z,8.00
2023-09-27T05:22:25.211Z,12.00
2023-09-27T05:23:25.239Z,12.00
2023-09-27T05:24:25.170Z,12.00
2023-09-27T05:25:25.171Z,16.00
2023-09-27T05:26:25.206Z,16.00
2023-09-27T05:27:25.193Z,16.00
2023-09-27T05:28:25.139Z,20.00
2023-09-27T05:29:25.257Z,20.00
2023-09-27T05:30:25.121Z,24.00
2023-09-27T05:31:25.095Z,24.00
2023-09-27T05:32:25.140Z,24.00
2023-09-27T05:33:25.097Z,32.00
2023-09-27T05:34:25.036Z,32.00
2023-09-27T05:35:25.148Z,32.00
2023-09-27T05:36:25.043Z,36.00
2023-09-27T05:37:25.028Z,36.00
2023-09-27T05:38:25.017Z,40.00
2023-09-27T05:39:25.056Z,40.00
2023-09-27T05:40:24.980Z,44.00
2023-09-27T05:41:25.051Z,44.00
2023-09-27T05:42:25.734Z,48.00
2023-09-27T05:43:25.054Z,48.00
2023-09-27T05:44:24.942Z,52.00
2023-09-27T05:45:25.981Z,52.00
2023-09-27T05:46:24.929Z,52.00
2023-09-27T05:47:24.925Z,56.00
2023-09-27T05:48:24.951Z,56.00
2023-09-27T05:49:24.860Z,60.00
2023-09-27T05:50:24.923Z,64.00
2023-09-27T05:51:24.811Z,64.00
2023-09-27T05:52:24.919Z,64.00
2023-09-27T05:53:24.845Z,68.00
2023-09-27T05:54:24.813Z,72.00
2023-09-27T05:55:24.763Z,72.00
2023-09-27T05:56:24.776Z,76.00
2023-09-27T05:57:24.766Z,76.00
2023-09-27T05:58:24.739Z,80.00
2023-09-27T05:59:24.793Z,80.00
2023-09-27T06:00:24.708Z,84.00
2023-09-27T06:01:24.740Z,88.00
2023-09-27T06:02:25.463Z,92.00
2023-09-27T06:03:24.848Z,96.00
2023-09-27T06:04:24.662Z,96.00
2023-09-27T06:05:24.715Z,100.00
2023-09-27T06:06:24.641Z,100.00
2023-09-27T06:07:24.617Z,100.00
2023-09-27T06:08:24.642Z,104.00
2023-09-27T06:09:26.522Z,112.00
2023-09-27T06:10:25.299Z,112.00
2023-09-27T06:11:24.609Z,116.00
2023-09-27T06:12:24.536Z,116.00
2023-09-27T06:13:24.539Z,116.00
2023-09-27T06:14:24.609Z,120.00
2023-09-27T06:15:24.526Z,128.00
2023-09-27T06:16:24.571Z,132.00
2023-09-27T06:17:24.614Z,140.00
2023-09-27T06:18:24.630Z,144.00
2023-09-27T06:19:24.581Z,148.00
2023-09-27T06:20:24.698Z,156.00
2023-09-27T06:21:24.464Z,160.00
2023-09-27T06:22:25.138Z,172.00
2023-09-27T06:23:24.434Z,176.00
2023-09-27T06:24:24.381Z,184.00
2023-09-27T06:25:24.459Z,196.00
2023-09-27T06:26:24.393Z,200.00
2023-09-27T06:27:24.367Z,208.00
2023-09-27T06:28:24.358Z,216.00
2023-09-27T06:29:24.382Z,228.00
2023-09-27T06:30:25.088Z,236.00
2023-09-27T06:31:24.445Z,248.00
2023-09-27T06:32:24.421Z,260.00
2023-09-27T06:33:24.296Z,272.00
2023-09-27T06:34:24.259Z,284.00
2023-09-27T06:35:24.371Z,296.00
2023-09-27T06:36:24.218Z,304.00
2023-09-27T06:37:24.229Z,316.00
2023-09-27T06:38:24.205Z,328.00
2023-09-27T06:39:24.199Z,336.00
2023-09-27T06:40:24.183Z,340.00
2023-09-27T06:41:24.191Z,344.00
2023-09-27T06:42:24.295Z,344.00
2023-09-27T06:43:24.164Z,348.00
2023-09-27T06:44:24.144Z,352.00
2023-09-27T06:45:24.103Z,348.00
2023-09-27T06:46:25.858Z,340.00
2023-09-27T06:47:24.160Z,332.00
2023-09-27T06:48:24.229Z,328.00
2023-09-27T06:49:24.047Z,316.00
2023-09-27T06:50:24.109Z,300.00
2023-09-27T06:51:24.028Z,292.00
2023-09-27T06:52:24.032Z,284.00
2023-09-27T06:53:27.484Z,284.00
2023-09-27T06:54:25.011Z,276.00
2023-09-27T06:55:23.998Z,268.00
2023-09-27T06:56:24.018Z,260.00
2023-09-27T06:57:23.947Z,256.00
2023-09-27T06:58:23.963Z,252.00
2023-09-27T06:59:24.060Z,248.00
2023-09-27T07:00:23.981Z,252.00
2023-09-27T07:01:23.980Z,264.00
2023-09-27T07:02:23.920Z,264.00
2023-09-27T07:03:24.020Z,244.00
2023-09-27T07:04:23.979Z,244.00
2023-09-27T07:05:23.841Z,248.00
2023-09-27T07:06:23.862Z,248.00
2023-09-27T07:07:23.863Z,244.00
2023-09-27T07:08:23.903Z,252.00
2023-09-27T07:09:23.786Z,252.00
2023-09-27T07:10:23.776Z,252.00
2023-09-27T07:11:23.933Z,256.00
2023-09-27T07:12:23.776Z,252.00
2023-09-27T07:13:23.809Z,252.00
2023-09-27T07:14:23.752Z,256.00
2023-09-27T07:15:23.701Z,260.00
2023-09-27T07:16:23.733Z,260.00
2023-09-27T07:17:23.788Z,264.00
2023-09-27T07:18:23.845Z,264.00
2023-09-27T07:19:23.733Z,268.00
2023-09-27T07:20:23.656Z,268.00
2023-09-27T07:21:23.650Z,272.00
2023-09-27T07:22:23.647Z,276.00
2023-09-27T07:23:23.650Z,272.00
2023-09-27T07:24:23.604Z,272.00
2023-09-27T07:25:23.571Z,276.00
2023-09-27T07:26:23.637Z,276.00
2023-09-27T07:27:23.571Z,284.00
2023-09-27T07:28:23.558Z,284.00
2023-09-27T07:29:23.620Z,308.00
2023-09-27T07:30:23.533Z,320.00
2023-09-27T07:31:23.544Z,308.00
2023-09-27T07:32:23.520Z,308.00
2023-09-27T07:33:23.511Z,312.00
2023-09-27T07:34:23.488Z,316.00
2023-09-27T07:35:23.484Z,324.00
2023-09-27T07:36:23.453Z,328.00
2023-09-27T07:37:23.445Z,336.00
2023-09-27T07:38:23.498Z,340.00
2023-09-27T07:39:23.447Z,348.00
2023-09-27T07:40:23.380Z,352.00
2023-09-27T07:41:23.418Z,356.00
2023-09-27T07:42:23.381Z,360.00
2023-09-27T07:43:23.359Z,364.00
2023-09-27T07:44:23.394Z,368.00
2023-09-27T07:45:23.679Z,372.00
2023-09-27T07:46:23.379Z,376.00
2023-09-27T07:47:23.346Z,384.00
2023-09-27T07:48:23.291Z,392.00
2023-09-27T07:49:23.396Z,396.00
2023-09-27T07:50:23.304Z,416.00
2023-09-27T07:51:23.263Z,472.00
2023-09-27T07:52:23.222Z,508.00
2023-09-27T07:53:23.288Z,608.00
2023-09-27T07:54:23.248Z,548.00
2023-09-27T07:55:23.253Z,536.00
2023-09-27T07:56:23.248Z,600.00
2023-09-27T07:57:23.197Z,684.00
2023-09-27T07:58:23.226Z,668.00
2023-09-27T07:59:23.217Z,616.00
2023-09-27T08:00:23.133Z,680.00
2023-09-27T08:01:23.156Z,668.00
2023-09-27T08:02:23.183Z,648.00
2023-09-27T08:03:23.618Z,696.00
2023-09-27T08:04:23.242Z,720.00
2023-09-27T08:05:23.197Z,1004.00
2023-09-27T08:06:23.075Z,1224.00
2023-09-27T08:07:23.320Z,1308.00
2023-09-27T08:08:23.034Z,1336.00
2023-09-27T08:09:38.822Z,1376.00
2023-09-27T08:10:24.237Z,1368.00
2023-09-27T08:11:23.049Z,1352.00
2023-09-27T08:12:22.969Z,1300.00
2023-09-27T08:13:22.984Z,1260.00
2023-09-27T08:14:23.136Z,1156.00
2023-09-27T08:15:23.038Z,1164.00
2023-09-27T08:16:22.958Z,1236.00
2023-09-27T08:17:22.977Z,1204.00
2023-09-27T08:18:22.991Z,1040.00
2023-09-27T08:19:22.910Z,1056.00
2023-09-27T08:20:22.926Z,1028.00
2023-09-27T08:21:22.876Z,1036.00
2023-09-27T08:22:22.864Z,1176.00
2023-09-27T08:23:22.961Z,1204.00
2023-09-27T08:24:22.865Z,1160.00
2023-09-27T08:25:22.792Z,1156.00
2023-09-27T08:26:22.975Z,1392.00
2023-09-27T08:27:22.790Z,1380.00
2023-09-27T08:28:22.790Z,1384.00
2023-09-27T08:29:22.918Z,1392.00
2023-09-27T08:30:22.755Z,1464.00
2023-09-27T08:31:22.812Z,1316.00
2023-09-27T08:32:22.746Z,1204.00
2023-09-27T08:33:22.741Z,1136.00
2023-09-27T08:34:22.808Z,1280.00
2023-09-27T08:35:22.695Z,1272.00
2023-09-27T08:36:22.671Z,1132.00
2023-09-27T08:37:22.630Z,1048.00
2023-09-27T08:38:22.683Z,1328.00
2023-09-27T08:39:22.670Z,1156.00
2023-09-27T08:40:22.633Z,1048.00
2023-09-27T08:41:22.605Z,824.00
2023-09-27T08:42:22.606Z,884.00
2023-09-27T08:43:22.587Z,1088.00
2023-09-27T08:44:22.603Z,1272.00
2023-09-27T08:45:22.519Z,1104.00
2023-09-27T08:46:22.536Z,952.00
2023-09-27T08:47:22.618Z,824.00
2023-09-27T08:48:22.564Z,812.00
2023-09-27T08:49:22.522Z,760.00
2023-09-27T08:50:22.538Z,740.00
2023-09-27T08:51:22.469Z,752.00
2023-09-27T08:52:22.427Z,744.00
2023-09-27T08:53:22.447Z,716.00
2023-09-27T08:54:23.156Z,740.00
2023-09-27T08:55:22.414Z,780.00
2023-09-27T08:56:22.485Z,720.00
2023-09-27T08:57:22.381Z,620.00
2023-09-27T08:58:22.394Z,588.00
2023-09-27T08:59:22.516Z,588.00
2023-09-27T09:00:22.410Z,620.00
2023-09-27T09:01:22.378Z,628.00
2023-09-27T09:02:22.409Z,640.00
2023-09-27T09:03:22.414Z,788.00
2023-09-27T09:04:22.346Z,928.00
2023-09-27T09:05:22.379Z,1192.00
2023-09-27T09:06:22.322Z,1252.00
2023-09-27T09:07:22.256Z,1216.00
2023-09-27T09:08:33.388Z,1276.00
2023-09-27T09:09:23.251Z,1416.00
2023-09-27T09:10:22.249Z,1376.00
2023-09-27T09:11:22.193Z,1400.00
2023-09-27T09:12:22.181Z,1624.00
2023-09-27T09:13:22.191Z,1444.00
2023-09-27T09:14:22.926Z,1376.00
2023-09-27T09:15:22.152Z,1636.00
2023-09-27T09:16:22.193Z,1572.00
2023-09-27T09:17:22.204Z,1504.00
2023-09-27T09:18:22.122Z,1504.00
2023-09-27T09:19:32.839Z,1600.00
2023-09-27T09:20:23.117Z,1656.00
2023-09-27T09:21:22.092Z,1320.00
2023-09-27T09:22:22.049Z,1392.00
2023-09-27T09:23:22.121Z,1720.00
2023-09-27T09:24:22.042Z,1412.00
2023-09-27T09:25:22.030Z,952.00
2023-09-27T09:26:22.994Z,876.00
2023-09-27T09:27:21.970Z,1056.00
2023-09-27T09:28:21.954Z,1080.00
2023-09-27T09:29:22.034Z,1212.00
2023-09-27T09:30:21.951Z,1392.00
2023-09-27T09:31:21.971Z,1476.00
2023-09-27T09:32:22.001Z,1432.00
2023-09-27T09:33:21.935Z,1376.00
2023-09-27T09:34:21.901Z,1520.00
2023-09-27T09:35:21.901Z,1860.00
2023-09-27T09:36:21.882Z,1888.00
2023-09-27T09:37:21.852Z,1840.00
2023-09-27T09:38:22.561Z,1796.00
2023-09-27T09:39:21.968Z,1816.00
2023-09-27T09:40:21.841Z,1816.00
2023-09-27T09:41:21.857Z,1748.00
2023-09-27T09:42:21.837Z,1648.00
2023-09-27T09:43:21.782Z,1624.00
2023-09-27T09:44:21.829Z,1688.00
2023-09-27T09:45:21.884Z,1720.00
2023-09-27T09:46:21.774Z,1792.00
2023-09-27T09:47:21.808Z,1804.00
2023-09-27T09:48:21.751Z,1844.00
2023-09-27T09:49:21.681Z,1808.00
2023-09-27T09:50:21.750Z,1904.00
2023-09-27T09:51:21.750Z,1964.00
2023-09-27T09:52:21.669Z,1964.00
2023-09-27T09:53:21.710Z,1916.00
2023-09-27T09:54:21.632Z,1704.00
2023-09-27T09:55:36.980Z,1692.00
2023-09-27T09:56:32.255Z,1456.00
2023-09-27T09:57:35.218Z,1812.00
2023-09-27T09:58:22.630Z,1948.00
2023-09-27T09:59:21.630Z,2092.00
2023-09-27T10:00:21.577Z,1916.00
2023-09-27T10:01:21.551Z,1572.00
2023-09-27T10:02:21.612Z,1228.00
2023-09-27T10:03:21.695Z,1544.00
2023-09-27T10:04:21.516Z,804.00
2023-09-27T10:05:21.546Z,1888.00
2023-09-27T10:06:32.477Z,2072.00
2023-09-27T10:07:22.472Z,2076.00
2023-09-27T10:08:21.504Z,1884.00
2023-09-27T10:09:21.443Z,1748.00
2023-09-27T10:10:21.460Z,1564.00
2023-09-27T10:11:21.425Z,1332.00
2023-09-27T10:12:21.403Z,1196.00
2023-09-27T10:13:21.383Z,1300.00
2023-09-27T10:14:21.426Z,1700.00
2023-09-27T10:15:21.386Z,1608.00
2023-09-27T10:16:21.337Z,1588.00
2023-09-27T10:17:21.400Z,1916.00
2023-09-27T10:18:21.331Z,2000.00
2023-09-27T10:19:21.337Z,2152.00
2023-09-27T10:20:21.420Z,2180.00
2023-09-27T10:21:21.280Z,2176.00
2023-09-27T10:22:21.234Z,2168.00
2023-09-27T10:23:21.299Z,2148.00
2023-09-27T10:24:21.243Z,2148.00
2023-09-27T10:25:21.195Z,2112.00
2023-09-27T10:26:21.321Z,2084.00
2023-09-27T10:27:21.179Z,2012.00
2023-09-27T10:28:21.188Z,2160.00
2023-09-27T10:29:21.171Z,2160.00
2023-09-27T10:30:21.132Z,2172.00
2023-09-27T10:31:21.146Z,2180.00
2023-09-27T10:32:21.318Z,2196.00
2023-09-27T10:33:21.192Z,2188.00
2023-09-27T10:34:21.092Z,2124.00
2023-09-27T10:35:21.130Z,1996.00
2023-09-27T10:36:21.069Z,1944.00
2023-09-27T10:37:21.050Z,2108.00
2023-09-27T10:38:21.087Z,2172.00
2023-09-27T10:39:21.062Z,2212.00
2023-09-27T10:40:21.215Z,2216.00
2023-09-27T10:41:21.126Z,2180.00
2023-09-27T10:42:21.083Z,2172.00
2023-09-27T10:43:21.928Z,2232.00
2023-09-27T10:44:21.018Z,2232.00
2023-09-27T10:45:20.995Z,2152.00
2023-09-27T10:46:21.008Z,2212.00
2023-09-27T10:47:20.957Z,2116.00
2023-09-27T10:48:20.946Z,2108.00
2023-09-27T10:49:20.959Z,2052.00
2023-09-27T10:50:20.948Z,1908.00
2023-09-27T10:51:20.908Z,1920.00
2023-09-27T10:52:21.024Z,2196.00
2023-09-27T10:53:20.869Z,2204.00
2023-09-27T10:54:20.866Z,2164.00
2023-09-27T10:55:20.861Z,2208.00
2023-09-27T10:56:20.843Z,2128.00
2023-09-27T10:57:20.795Z,2272.00
2023-09-27T10:58:20.863Z,2224.00
2023-09-27T10:59:21.057Z,2256.00
2023-09-27T11:00:20.790Z,2256.00
2023-09-27T11:01:20.829Z,2252.00
2023-09-27T11:02:20.785Z,2204.00
2023-09-27T11:03:20.830Z,2112.00
2023-09-27T11:04:20.736Z,2104.00
2023-09-27T11:05:20.764Z,2232.00
2023-09-27T11:06:20.719Z,2060.00
2023-09-27T11:07:20.694Z,1992.00
2023-09-27T11:08:20.714Z,1868.00
2023-09-27T11:09:20.770Z,1460.00
2023-09-27T11:10:20.662Z,1320.00
2023-09-27T11:11:20.715Z,1328.00
2023-09-27T11:12:20.640Z,1384.00
2023-09-27T11:13:20.613Z,1012.00
2023-09-27T11:14:20.617Z,1244.00
2023-09-27T11:15:20.572Z,1440.00
2023-09-27T11:16:20.545Z,1320.00
2023-09-27T11:17:20.651Z,1612.00
2023-09-27T11:18:20.644Z,1852.00
2023-09-27T11:19:20.551Z,1892.00
2023-09-27T11:20:21.541Z,1696.00
2023-09-27T11:21:20.509Z,1644.00
2023-09-27T11:22:20.478Z,1596.00
2023-09-27T11:23:20.466Z,1400.00
2023-09-27T11:24:20.507Z,1232.00
2023-09-27T11:25:20.489Z,1140.00
2023-09-27T11:26:20.423Z,988.00
2023-09-27T11:27:20.431Z,900.00
2023-09-27T11:28:20.405Z,912.00
2023-09-27T11:29:20.411Z,924.00
2023-09-27T11:30:20.370Z,872.00
2023-09-27T11:31:20.416Z,824.00
2023-09-27T11:32:20.436Z,844.00
2023-09-27T11:33:20.389Z,964.00
2023-09-27T11:34:20.343Z,1224.00
2023-09-27T11:35:20.389Z,940.00
2023-09-27T11:36:20.856Z,904.00
2023-09-27T11:37:20.315Z,1492.00
2023-09-27T11:38:20.330Z,1168.00
2023-09-27T11:39:20.361Z,1408.00
2023-09-27T11:40:20.298Z,1568.00
2023-09-27T11:41:20.283Z,1380.00
2023-09-27T11:42:20.240Z,1180.00
2023-09-27T11:43:20.198Z,1272.00
2023-09-27T11:44:20.229Z,1348.00
2023-09-27T11:45:20.173Z,1584.00
2023-09-27T11:46:20.186Z,1404.00
2023-09-27T11:47:20.180Z,1492.00
2023-09-27T11:48:20.213Z,1408.00
2023-09-27T11:49:20.131Z,1108.00
2023-09-27T11:50:20.161Z,936.00
2023-09-27T11:51:20.858Z,912.00
2023-09-27T11:52:20.110Z,908.00
2023-09-27T11:53:20.152Z,848.00
2023-09-27T11:54:20.080Z,800.00
2023-09-27T11:55:20.135Z,804.00
2023-09-27T11:56:20.069Z,800.00
2023-09-27T11:57:20.006Z,848.00
2023-09-27T11:58:20.026Z,976.00
2023-09-27T11:59:20.067Z,980.00
2023-09-27T12:00:19.976Z,1024.00
2023-09-27T12:01:19.989Z,900.00
2023-09-27T12:02:28.091Z,948.00
2023-09-27T12:03:21.127Z,924.00
2023-09-27T12:04:20.167Z,852.00
2023-09-27T12:05:20.161Z,940.00
2023-09-27T12:06:19.993Z,1120.00
2023-09-27T12:07:20.107Z,1028.00
2023-09-27T12:08:19.921Z,872.00
2023-09-27T12:09:19.843Z,772.00
2023-09-27T12:10:19.837Z,748.00
2023-09-27T12:11:19.893Z,820.00
2023-09-27T12:12:19.839Z,1016.00
2023-09-27T12:13:19.804Z,1132.00
2023-09-27T12:14:19.841Z,1276.00
2023-09-27T12:15:19.777Z,1348.00
2023-09-27T12:16:19.817Z,1448.00
2023-09-27T12:17:19.764Z,1452.00
2023-09-27T12:18:19.859Z,1440.00
2023-09-27T12:19:20.537Z,1436.00
2023-09-27T12:20:36.529Z,1428.00
2023-09-27T12:21:20.745Z,1292.00
2023-09-27T12:22:19.721Z,1304.00
2023-09-27T12:23:19.683Z,1260.00
2023-09-27T12:24:19.725Z,1304.00
2023-09-27T12:25:19.638Z,1288.00
2023-09-27T12:26:19.732Z,1180.00
2023-09-27T12:27:19.624Z,1240.00
2023-09-27T12:28:19.611Z,1160.00
2023-09-27T12:29:19.662Z,1088.00
2023-09-27T12:30:19.591Z,1080.00
2023-09-27T12:31:19.598Z,932.00
2023-09-27T12:32:19.586Z,944.00
2023-09-27T12:33:20.311Z,904.00
2023-09-27T12:34:19.543Z,924.00
2023-09-27T12:35:19.542Z,856.00
2023-09-27T12:36:19.543Z,832.00
2023-09-27T12:37:20.744Z,936.00
2023-09-27T12:38:19.532Z,1092.00
2023-09-27T12:39:20.823Z,1036.00
2023-09-27T12:40:19.492Z,1192.00
2023-09-27T12:41:19.489Z,1156.00
2023-09-27T12:42:19.407Z,1080.00
2023-09-27T12:43:19.426Z,1120.00
2023-09-27T12:44:22.797Z,1120.00
2023-09-27T12:45:19.395Z,1060.00
2023-09-27T12:46:19.503Z,992.00